メインページ
METAR-TAF:

METAR-TAF

空港 :

チタ, ロシア

カダラ空港

緯度: 52-05N, 経度: 113-29E, 海抜: 685m

現時点の気象観測

当レポートは33分前の20:30(UTC)に作成
北西の風 2kt
気温 -11°C
湿度 72%
気圧 1028 hPa
視程10km以上

METAR: UIAA 292030Z 32001MPS 9999 NSC M11/M15 Q1028 R29/CLRD70 NOSIG RMK QFE712

時間: 06:03 (21:03 UTC)

予報

当レポートは1時間3分前の20:00(UTC)に作成
予報は29日の 21時(UTC)から 30日の 21時(UTC)まで有効
西の風 6kt
視程10km以上
29日の 21時(UTC)から 30日の 02時(UTC)まで一時的に
視程: 3000m
煙, 靄

TAF: UIAA 292000Z 2921/3021 27003MPS 9999 NSC TEMPO 2921/3002 3000 FU BR

4,000以上の空港の気象観測と天気予報(METAR報とTAF報)

利用可能な観測所は地図上に黄色い丸と赤い丸で示す。

丸の上にカーソルを重ねると観測所名を参照できる。

次にクリックすると気象観測と天気予報を参照できる。

マップの切り替え:黒色「×」印の緑ボタンをクリックして拡大、「-」印の緑ボタンをクリックして縮小、緑色の三角印をクリックして隣りの地図に切り替え


METAR-TAF: